Time;durP1;ratioP1;P1;durP2;ratioP2;P2;SDS_P1;SDS_P2;PMS_P1;PMS_P2;Temp;Humidity;BMP_temperature;BMP_pressure;BME280_temperature;BME280_humidity;BME280_pressure;Samples;Min_cycle;Max_cycle;Signal;HPM_P1;HPM_P2
2023/08/24 00:01:36;;;;;;;3.33;1.80;;;14.40;1.00;;;;;;4984886;28;20493;-73
2023/08/24 00:04:02;;;;;;;2.92;1.70;;;14.40;1.00;;;;;;4977534;28;20070;-73
2023/08/24 00:06:28;;;;;;;2.00;1.67;;;14.40;1.00;;;;;;4980100;28;20034;-73
2023/08/24 00:08:53;;;;;;;3.08;1.58;;;14.40;1.00;;;;;;4969135;28;20042;-73
2023/08/24 00:11:19;;;;;;;1.67;1.30;;;14.40;1.00;;;;;;4966570;28;20535;-73
2023/08/24 00:13:48;;;;;;;1.85;1.45;;;14.40;1.00;;;;;;4986189;28;20073;-72
2023/08/24 00:16:19;;;;;;;2.42;1.50;;;14.40;1.00;;;;;;4989752;28;20043;-74
2023/08/24 00:18:44;;;;;;;1.70;1.40;;;14.40;1.00;;;;;;4993430;28;20034;-73
2023/08/24 00:21:11;;;;;;;2.45;1.40;;;14.40;1.00;;;;;;4964386;28;20481;-72
2023/08/24 00:23:36;;;;;;;1.45;1.25;;;14.30;1.00;;;;;;4995858;28;20104;-72
2023/08/24 00:26:02;;;;;;;2.03;1.70;;;14.30;1.00;;;;;;4977808;28;20593;-72
2023/08/24 00:28:28;;;;;;;1.73;1.50;;;14.30;1.00;;;;;;4962259;28;20050;-73
2023/08/24 00:30:53;;;;;;;4.15;2.28;;;14.20;1.00;;;;;;4978085;28;20085;-73
2023/08/24 00:33:19;;;;;;;3.25;1.73;;;14.20;1.00;;;;;;4968092;28;20055;-72
2023/08/24 00:35:45;;;;;;;2.22;1.40;;;14.20;1.00;;;;;;5002517;28;20068;-73
2023/08/24 00:38:10;;;;;;;2.20;1.48;;;14.10;1.00;;;;;;4967629;28;20050;-73
2023/08/24 00:40:36;;;;;;;2.35;1.95;;;14.10;1.00;;;;;;4983326;28;20088;-73
2023/08/24 00:43:02;;;;;;;1.40;1.17;;;14.10;1.00;;;;;;4970249;28;20041;-73
2023/08/24 00:45:29;;;;;;;2.78;1.10;;;14.10;1.00;;;;;;4982724;28;20706;-72
2023/08/24 00:47:55;;;;;;;1.58;1.23;;;14.10;1.00;;;;;;4985436;28;20046;-73
2023/08/24 00:50:21;;;;;;;3.47;1.30;;;14.10;1.00;;;;;;4972472;28;20410;-73
2023/08/24 00:52:47;;;;;;;2.20;1.23;;;14.20;1.00;;;;;;4983257;28;20147;-73
2023/08/24 00:55:13;;;;;;;3.92;1.00;;;14.10;1.00;;;;;;4987040;28;20047;-73
2023/08/24 00:57:41;;;;;;;1.38;0.98;;;14.10;1.00;;;;;;4960463;28;20048;-72
2023/08/24 01:00:10;;;;;;;2.35;1.10;;;14.10;1.00;;;;;;4981884;28;20050;-73
2023/08/24 01:02:37;;;;;;;1.25;0.93;;;14.00;1.00;;;;;;4961720;28;20039;-73
2023/08/24 01:05:04;;;;;;;2.25;1.60;;;14.00;1.00;;;;;;4985951;28;20117;-73
2023/08/24 01:07:32;;;;;;;1.48;1.30;;;14.00;1.00;;;;;;4986311;28;20045;-73
2023/08/24 01:09:57;;;;;;;2.58;1.67;;;13.90;1.00;;;;;;4968438;28;20027;-72
2023/08/24 01:12:32;;;;;;;1.77;1.38;;;13.90;1.00;;;;;;4986606;28;20042;-73
2023/08/24 01:15:06;;;;;;;1.85;1.50;;;14.00;1.00;;;;;;4992425;28;20038;-72
2023/08/24 01:17:33;;;;;;;2.10;1.60;;;14.00;1.00;;;;;;4974584;28;20046;-73
2023/08/24 01:19:59;;;;;;;2.03;1.60;;;14.00;1.00;;;;;;4968344;28;20054;-73
2023/08/24 01:22:27;;;;;;;2.55;1.60;;;14.10;1.00;;;;;;4974282;28;20050;-73
2023/08/24 01:25:12;;;;;;;2.83;1.60;;;14.10;1.00;;;;;;4996138;28;20070;-72
2023/08/24 01:27:38;;;;;;;1.63;1.50;;;14.20;1.00;;;;;;5000547;28;20042;-72
2023/08/24 01:30:05;;;;;;;1.52;1.30;;;14.20;1.00;;;;;;4974427;28;20129;-73
2023/08/24 01:32:34;;;;;;;1.45;1.20;;;14.30;1.00;;;;;;4982164;28;20050;-72
2023/08/24 01:35:08;;;;;;;2.05;1.63;;;14.30;1.00;;;;;;4967646;28;20042;-71
2023/08/24 01:37:35;;;;;;;1.80;1.40;;;14.40;1.00;;;;;;4997879;28;20129;-72
2023/08/24 01:40:12;;;;;;;1.98;1.50;;;14.40;1.00;;;;;;4960324;28;20039;-73
2023/08/24 01:42:59;;;;;;;1.90;1.60;;;14.40;1.00;;;;;;4969217;28;20042;-73
2023/08/24 01:45:29;;;;;;;3.47;1.55;;;14.40;1.00;;;;;;4996129;28;20048;-71
2023/08/24 01:47:55;;;;;;;4.53;1.98;;;14.50;1.00;;;;;;4959737;28;20034;-72
2023/08/24 01:50:22;;;;;;;2.80;1.92;;;14.50;1.00;;;;;;4972004;28;20753;-73
2023/08/24 01:52:48;;;;;;;2.22;1.52;;;14.50;1.00;;;;;;4997424;28;20541;-73
2023/08/24 01:55:15;;;;;;;3.15;1.38;;;14.60;1.00;;;;;;4979470;28;20081;-73
2023/08/24 01:57:40;;;;;;;2.45;1.40;;;14.60;1.00;;;;;;4967587;28;20505;-73
2023/08/24 02:00:07;;;;;;;1.75;1.30;;;14.60;1.00;;;;;;4983696;28;20046;-73
2023/08/24 02:02:35;;;;;;;2.55;1.65;;;14.60;1.00;;;;;;4969528;28;20045;-73
2023/08/24 02:05:00;;;;;;;4.65;2.10;;;14.60;1.00;;;;;;4975047;28;20041;-73
2023/08/24 02:07:26;;;;;;;3.47;1.92;;;14.60;1.00;;;;;;4983144;28;20109;-72
2023/08/24 02:09:52;;;;;;;1.80;1.60;;;14.50;1.00;;;;;;4985481;28;20042;-73
2023/08/24 02:12:17;;;;;;;3.17;1.80;;;14.60;1.00;;;;;;4978667;28;20246;-72
2023/08/24 02:14:43;;;;;;;3.92;1.70;;;14.60;1.00;;;;;;4986516;28;20046;-72
2023/08/24 02:17:08;;;;;;;2.58;1.50;;;14.50;1.00;;;;;;4987178;28;20751;-72
2023/08/24 02:19:34;;;;;;;4.95;2.20;;;14.50;1.00;;;;;;4984904;28;20049;-73
2023/08/24 02:22:00;;;;;;;2.53;1.70;;;14.50;1.00;;;;;;4997834;28;20047;-72
2023/08/24 02:24:26;;;;;;;6.10;1.98;;;14.50;1.00;;;;;;4984244;28;20038;-73
2023/08/24 02:26:51;;;;;;;2.83;1.92;;;14.40;1.00;;;;;;4979442;28;20039;-73
2023/08/24 02:29:17;;;;;;;4.90;2.33;;;14.50;1.00;;;;;;5003719;28;20061;-73
2023/08/24 02:31:42;;;;;;;4.65;2.55;;;14.40;1.00;;;;;;4998638;28;20043;-73
2023/08/24 02:34:08;;;;;;;4.57;2.40;;;14.40;1.00;;;;;;4983234;28;20439;-73
2023/08/24 02:36:34;;;;;;;3.85;2.20;;;14.40;1.00;;;;;;4994873;28;20420;-72
2023/08/24 02:39:00;;;;;;;3.90;2.17;;;14.40;1.00;;;;;;4978196;28;20154;-72
2023/08/24 02:41:26;;;;;;;3.83;2.88;;;14.30;1.00;;;;;;4972538;28;20536;-73
2023/08/24 02:43:52;;;;;;;5.95;2.90;;;14.30;1.00;;;;;;4968044;28;20424;-73
2023/08/24 02:46:20;;;;;;;4.68;2.63;;;14.30;1.00;;;;;;4988561;28;20034;-72
2023/08/24 02:48:46;;;;;;;5.00;2.78;;;14.30;1.00;;;;;;4970268;28;20038;-73
2023/08/24 02:51:13;;;;;;;5.32;2.58;;;14.30;1.00;;;;;;4988349;28;20572;-72
2023/08/24 02:53:39;;;;;;;6.88;3.05;;;14.40;1.00;;;;;;4978961;28;20034;-73
2023/08/24 02:56:05;;;;;;;3.03;2.20;;;14.40;1.00;;;;;;4969276;28;20545;-73
2023/08/24 02:58:31;;;;;;;5.57;2.80;;;14.40;1.00;;;;;;4981848;28;20101;-74
2023/08/24 03:00:57;;;;;;;3.67;2.42;;;14.40;1.00;;;;;;4995771;28;20042;-73
2023/08/24 03:03:24;;;;;;;5.18;3.05;;;14.40;1.00;;;;;;4971912;28;20035;-73
2023/08/24 03:06:07;;;;;;;4.95;2.85;;;14.50;1.00;;;;;;4987794;28;20035;-73
2023/08/24 03:08:34;;;;;;;3.58;2.38;;;14.60;1.00;;;;;;4972169;28;20405;-73
2023/08/24 03:11:00;;;;;;;5.95;2.42;;;14.60;1.00;;;;;;4988218;28;20745;-73
2023/08/24 03:13:27;;;;;;;5.78;2.50;;;14.60;1.00;;;;;;4987711;28;20065;-73
2023/08/24 03:15:53;;;;;;;4.13;2.60;;;14.60;1.00;;;;;;5003023;28;20113;-73
2023/08/24 03:18:20;;;;;;;5.05;2.90;;;14.60;1.00;;;;;;4983387;28;20051;-73
2023/08/24 03:20:47;;;;;;;4.88;2.55;;;14.60;1.00;;;;;;4962677;28;20555;-73
2023/08/24 03:23:12;;;;;;;5.13;2.95;;;14.60;1.00;;;;;;4982817;28;20039;-73
2023/08/24 03:25:40;;;;;;;4.00;2.53;;;14.60;1.00;;;;;;4986508;28;20049;-72
2023/08/24 03:28:07;;;;;;;4.50;2.80;;;14.60;1.00;;;;;;4983338;28;20038;-73
2023/08/24 03:30:37;;;;;;;4.60;2.90;;;14.60;1.00;;;;;;4975158;28;20061;-72
2023/08/24 03:33:04;;;;;;;3.63;2.55;;;14.50;1.00;;;;;;4970646;28;20047;-72
2023/08/24 03:35:31;;;;;;;4.22;2.80;;;14.50;1.00;;;;;;4969449;28;20047;-72
2023/08/24 03:37:57;;;;;;;7.13;2.40;;;14.40;1.00;;;;;;5004134;28;20046;-73
2023/08/24 03:40:22;;;;;;;4.68;2.22;;;14.30;1.00;;;;;;4978712;28;20503;-73
2023/08/24 03:42:48;;;;;;;3.58;2.30;;;14.20;1.00;;;;;;4953614;28;20043;-73
2023/08/24 03:45:17;;;;;;;3.63;2.30;;;14.10;1.00;;;;;;4996253;28;20050;-72
2023/08/24 03:47:42;;;;;;;3.75;2.53;;;14.00;1.00;;;;;;4994197;28;20117;-73
2023/08/24 03:50:08;;;;;;;6.00;2.47;;;13.90;1.00;;;;;;4983195;28;20459;-73
2023/08/24 03:52:34;;;;;;;6.85;2.92;;;13.90;1.00;;;;;;4975424;28;20046;-72
2023/08/24 03:54:59;;;;;;;6.15;2.95;;;13.80;1.00;;;;;;4969231;28;20035;-73
2023/08/24 03:57:25;;;;;;;4.78;3.13;;;13.80;1.00;;;;;;4990403;28;20046;-73
2023/08/24 03:59:51;;;;;;;10.13;3.30;;;13.80;1.00;;;;;;4990256;28;20105;-73
2023/08/24 04:02:16;;;;;;;4.10;3.05;;;13.80;1.00;;;;;;4996888;28;20034;-73
2023/08/24 04:04:42;;;;;;;4.88;2.70;;;13.80;1.00;;;;;;4980148;28;20096;-73
2023/08/24 04:07:08;;;;;;;5.70;3.17;;;13.70;1.00;;;;;;4975032;28;20038;-73
2023/08/24 04:09:33;;;;;;;4.95;3.25;;;13.70;1.00;;;;;;5000884;28;20065;-73
2023/08/24 04:11:59;;;;;;;5.30;3.05;;;13.60;1.00;;;;;;4987112;28;20046;-73
2023/08/24 04:14:24;;;;;;;6.55;3.00;;;13.60;1.00;;;;;;5003088;28;20077;-73
2023/08/24 04:16:50;;;;;;;4.95;3.08;;;13.50;1.00;;;;;;4985344;28;20045;-74
2023/08/24 04:19:16;;;;;;;6.25;2.92;;;13.50;1.00;;;;;;4982282;28;20476;-73
2023/08/24 04:21:41;;;;;;;5.07;3.20;;;13.50;1.00;;;;;;4987633;28;20449;-73
2023/08/24 04:24:07;;;;;;;6.30;3.58;;;13.50;1.00;;;;;;4992443;28;20117;-73
2023/08/24 04:26:33;;;;;;;6.10;2.90;;;13.50;1.00;;;;;;4980357;28;20035;-73
2023/08/24 04:28:58;;;;;;;6.78;3.35;;;13.50;1.00;;;;;;4973083;28;20086;-72
2023/08/24 04:31:24;;;;;;;5.38;3.85;;;13.50;1.00;;;;;;5000018;28;20068;-73
2023/08/24 04:33:50;;;;;;;5.43;2.80;;;13.50;1.00;;;;;;4989136;28;20715;-73
2023/08/24 04:36:15;;;;;;;5.95;2.50;;;13.50;1.00;;;;;;4982799;28;20046;-73
2023/08/24 04:38:41;;;;;;;4.50;2.67;;;13.40;1.00;;;;;;4987744;28;20140;-73
2023/08/24 04:41:09;;;;;;;3.20;2.25;;;13.40;1.00;;;;;;4986758;28;20493;-72
2023/08/24 04:43:36;;;;;;;3.05;2.28;;;13.30;5.50;;;;;;4988260;28;20050;-73
2023/08/24 04:46:02;;;;;;;3.50;2.10;;;13.40;8.60;;;;;;4973898;28;20038;-73
2023/08/24 04:48:32;;;;;;;5.30;2.75;;;13.40;8.40;;;;;;4981667;28;20396;-73
2023/08/24 04:50:58;;;;;;;3.72;2.53;;;13.40;8.90;;;;;;4996462;28;20038;-73
2023/08/24 04:53:25;;;;;;;2.85;2.10;;;13.40;15.10;;;;;;4977495;28;20606;-72
2023/08/24 04:55:51;;;;;;;3.22;2.17;;;13.40;17.40;;;;;;4980681;28;20050;-73
2023/08/24 04:58:17;;;;;;;2.92;1.60;;;13.40;18.10;;;;;;4965381;28;20472;-73
2023/08/24 05:00:43;;;;;;;2.33;1.98;;;13.40;15.90;;;;;;4980077;28;20061;-73
2023/08/24 05:03:09;;;;;;;3.83;2.20;;;13.40;16.00;;;;;;4967945;28;20751;-73
2023/08/24 05:05:36;;;;;;;5.28;2.25;;;13.40;18.00;;;;;;4985510;28;20463;-73
2023/08/24 05:08:05;;;;;;;3.15;2.05;;;13.40;21.80;;;;;;4975432;28;20039;-73
2023/08/24 05:10:34;;;;;;;2.97;2.40;;;13.40;23.30;;;;;;4967016;28;20038;-73
2023/08/24 05:13:00;;;;;;;3.40;2.15;;;13.40;24.70;;;;;;4999329;28;20492;-72
2023/08/24 05:15:27;;;;;;;3.92;2.03;;;13.40;27.20;;;;;;4985182;28;20069;-73
2023/08/24 05:17:56;;;;;;;4.47;2.20;;;13.40;28.10;;;;;;4983212;28;20038;-72
2023/08/24 05:20:28;;;;;;;5.07;2.90;;;13.40;29.80;;;;;;4972330;28;20082;-72
2023/08/24 05:22:54;;;;;;;4.22;2.50;;;13.40;31.50;;;;;;4964697;28;20104;-73
2023/08/24 05:25:21;;;;;;;5.97;3.45;;;13.40;34.90;;;;;;4975116;28;20113;-73
2023/08/24 05:27:47;;;;;;;5.93;3.00;;;13.50;38.10;;;;;;4982943;28;20405;-72
2023/08/24 05:30:13;;;;;;;5.85;2.72;;;13.50;43.60;;;;;;4977827;28;20062;-72
2023/08/24 05:32:38;;;;;;;7.90;3.45;;;13.50;47.50;;;;;;4963224;28;20081;-73
2023/08/24 05:35:05;;;;;;;5.97;3.38;;;13.60;51.60;;;;;;4978173;28;20493;-73
2023/08/24 05:37:31;;;;;;;7.35;3.88;;;13.60;54.60;;;;;;4983486;28;20099;-73
2023/08/24 05:39:56;;;;;;;5.85;3.90;;;13.70;60.90;;;;;;4969051;28;20038;-74
2023/08/24 05:42:22;;;;;;;7.63;4.40;;;13.70;70.40;;;;;;5000821;28;20042;-72
2023/08/24 05:44:48;;;;;;;7.53;4.50;;;13.90;80.50;;;;;;4984394;28;20135;-73
2023/08/24 05:47:13;;;;;;;10.00;4.70;;;14.00;89.90;;;;;;4980508;28;20165;-72
2023/08/24 05:49:39;;;;;;;9.80;4.78;;;14.20;93.90;;;;;;4998858;28;20093;-73
2023/08/24 05:52:05;;;;;;;9.88;4.97;;;14.30;99.50;;;;;;4985994;28;20041;-73
2023/08/24 05:54:30;;;;;;;8.15;5.78;;;14.50;99.90;;;;;;4987362;28;20103;-73
2023/08/24 05:57:00;;;;;;;6.75;4.40;;;14.70;99.90;;;;;;4986254;28;20042;-73
2023/08/24 05:59:26;;;;;;;10.00;4.93;;;14.90;99.90;;;;;;5001802;28;20049;-73
2023/08/24 06:01:52;;;;;;;10.48;4.60;;;15.20;99.90;;;;;;4969027;28;20089;-72
2023/08/24 06:04:17;;;;;;;8.55;4.50;;;15.40;99.90;;;;;;4983058;28;20042;-72
2023/08/24 06:06:43;;;;;;;9.70;4.57;;;15.60;99.90;;;;;;4984543;28;20038;-73
2023/08/24 06:09:09;;;;;;;9.52;4.10;;;15.80;99.90;;;;;;4987052;28;20551;-72
2023/08/24 06:11:35;;;;;;;8.13;3.80;;;16.00;99.90;;;;;;4980705;28;20054;-73
2023/08/24 06:14:01;;;;;;;11.10;3.90;;;16.30;99.90;;;;;;4986438;28;20416;-72
2023/08/24 06:16:28;;;;;;;5.15;3.63;;;16.50;99.90;;;;;;4987057;28;20034;-73
2023/08/24 06:18:54;;;;;;;4.18;3.58;;;16.70;99.90;;;;;;4969542;28;20046;-72
2023/08/24 06:21:19;;;;;;;7.30;3.40;;;16.80;99.90;;;;;;4985859;28;20077;-73
2023/08/24 06:23:47;;;;;;;7.38;3.33;;;16.80;99.90;;;;;;4962726;28;20038;-73
2023/08/24 06:26:13;;;;;;;4.70;3.10;;;16.90;99.90;;;;;;4979085;28;20038;-73
2023/08/24 06:28:38;;;;;;;4.47;2.88;;;17.00;99.90;;;;;;4987120;28;20127;-72
2023/08/24 06:31:04;;;;;;;4.32;2.70;;;17.10;99.90;;;;;;4982307;28;20823;-73
2023/08/24 06:33:34;;;;;;;3.55;2.58;;;17.20;99.90;;;;;;4979344;28;20057;-73
2023/08/24 06:36:01;;;;;;;6.25;3.05;;;17.30;99.90;;;;;;4981483;28;20042;-72
2023/08/24 06:38:28;;;;;;;5.20;2.75;;;17.30;99.90;;;;;;4981558;28;20050;-73
2023/08/24 06:40:54;;;;;;;4.97;2.70;;;17.30;96.90;;;;;;4985187;28;20053;-73
2023/08/24 06:43:20;;;;;;;4.47;2.85;;;17.40;80.50;;;;;;4965900;28;20046;-73
2023/08/24 06:45:46;;;;;;;4.88;2.60;;;17.40;57.30;;;;;;4980645;28;20057;-72
2023/08/24 06:48:11;;;;;;;5.88;2.90;;;17.50;38.80;;;;;;4979275;28;20050;-72
2023/08/24 06:50:37;;;;;;;3.72;2.72;;;17.50;26.30;;;;;;4980162;28;20137;-72
2023/08/24 06:53:03;;;;;;;6.57;3.05;;;17.60;22.30;;;;;;4997198;28;20046;-72
2023/08/24 06:55:29;;;;;;;9.20;2.88;;;17.70;13.70;;;;;;4970463;28;20053;-73
2023/08/24 06:57:55;;;;;;;5.63;2.80;;;17.90;1.00;;;;;;4981030;28;20034;-73
2023/08/24 07:00:21;;;;;;;6.43;3.08;;;18.20;1.00;;;;;;4981516;28;20038;-71
2023/08/24 07:02:48;;;;;;;9.60;2.83;;;18.30;1.00;;;;;;4984363;28;20031;-73
2023/08/24 07:05:14;;;;;;;8.40;3.65;;;18.40;1.00;;;;;;4986549;28;20493;-73
2023/08/24 07:07:43;;;;;;;5.70;3.17;;;18.40;1.00;;;;;;4998475;28;20038;-72
2023/08/24 07:10:09;;;;;;;7.30;3.55;;;18.40;1.00;;;;;;4971079;28;20433;-73
2023/08/24 07:12:35;;;;;;;6.75;4.15;;;18.50;1.00;;;;;;4996215;28;20042;-72
2023/08/24 07:15:01;;;;;;;6.72;3.88;;;18.50;1.00;;;;;;4977758;28;20042;-71
2023/08/24 07:17:26;;;;;;;8.57;4.28;;;18.60;1.00;;;;;;4987335;28;20042;-73
2023/08/24 07:19:52;;;;;;;8.55;4.60;;;18.60;1.00;;;;;;5001328;28;20038;-73
2023/08/24 07:22:19;;;;;;;8.88;4.38;;;18.60;1.00;;;;;;4976179;28;20043;-73
2023/08/24 07:24:45;;;;;;;9.88;5.00;;;18.50;1.00;;;;;;4985991;28;20039;-72
2023/08/24 07:27:10;;;;;;;9.45;6.00;;;18.50;1.00;;;;;;4987528;28;20456;-73
2023/08/24 07:29:36;;;;;;;8.57;5.45;;;18.60;1.00;;;;;;4981732;28;20093;-73
2023/08/24 07:32:03;;;;;;;8.85;5.47;;;18.60;1.00;;;;;;4985507;28;20130;-72
2023/08/24 07:34:29;;;;;;;10.20;6.15;;;18.70;1.00;;;;;;4968843;28;20030;-72
2023/08/24 07:36:55;;;;;;;8.68;4.85;;;18.80;1.00;;;;;;5002955;28;20050;-73
2023/08/24 07:39:21;;;;;;;11.00;5.75;;;18.90;1.00;;;;;;4969294;28;20043;-73
2023/08/24 07:41:46;;;;;;;10.20;5.32;;;19.20;1.00;;;;;;4972188;28;20461;-73
2023/08/24 07:44:12;;;;;;;8.75;5.47;;;19.40;1.00;;;;;;4985889;28;20073;-73
2023/08/24 07:46:39;;;;;;;6.22;4.65;;;19.60;99.90;;;;;;4987746;28;20149;-73
2023/08/24 07:49:05;;;;;;;7.68;4.70;;;19.70;99.90;;;;;;4991061;28;20599;-73
2023/08/24 07:51:33;;;;;;;5.70;4.07;;;19.70;99.90;;;;;;5002189;28;20034;-73
2023/08/24 07:53:59;;;;;;;9.15;4.50;;;19.70;99.90;;;;;;4970492;28;20039;-73
2023/08/24 07:56:25;;;;;;;9.07;3.92;;;19.60;99.90;;;;;;4963742;28;20468;-73
2023/08/24 07:58:50;;;;;;;7.15;4.03;;;19.50;99.90;;;;;;4970253;28;20035;-73
2023/08/24 08:01:16;;;;;;;11.00;4.10;;;19.50;99.90;;;;;;4986364;28;20031;-73
2023/08/24 08:03:41;;;;;;;7.15;3.95;;;19.50;99.90;;;;;;4978570;28;20031;-73
2023/08/24 08:06:07;;;;;;;6.72;3.83;;;19.50;99.90;;;;;;4983884;28;20086;-74
2023/08/24 08:08:33;;;;;;;6.03;4.13;;;19.50;99.90;;;;;;5001282;28;20034;-73
2023/08/24 08:11:00;;;;;;;6.80;4.13;;;19.50;99.90;;;;;;4985705;28;20247;-72
2023/08/24 08:13:26;;;;;;;8.18;4.45;;;19.50;99.90;;;;;;4962798;28;20575;-73
2023/08/24 08:15:52;;;;;;;9.60;4.43;;;19.50;99.90;;;;;;4985275;28;20038;-72
2023/08/24 08:18:17;;;;;;;9.55;5.00;;;19.60;99.90;;;;;;4966884;28;20100;-73
2023/08/24 08:20:43;;;;;;;8.38;4.55;;;19.60;99.90;;;;;;4973714;28;20134;-72
2023/08/24 08:23:08;;;;;;;8.13;4.35;;;19.70;99.90;;;;;;4984898;28;20035;-72
2023/08/24 08:25:34;;;;;;;7.38;4.57;;;19.80;99.90;;;;;;4975575;28;20516;-73
2023/08/24 08:28:00;;;;;;;9.77;4.72;;;19.80;99.90;;;;;;4984959;28;20050;-73
2023/08/24 08:30:25;;;;;;;7.93;4.38;;;20.00;99.90;;;;;;4975612;28;20154;-72
2023/08/24 08:32:52;;;;;;;9.30;4.82;;;20.10;99.90;;;;;;4975177;28;20128;-73
2023/08/24 08:35:18;;;;;;;8.30;4.13;;;20.20;99.90;;;;;;4984035;28;20080;-72
2023/08/24 08:37:45;;;;;;;10.05;4.65;;;20.40;99.90;;;;;;4981849;28;20042;-72
2023/08/24 08:40:11;;;;;;;7.72;4.32;;;20.70;97.40;;;;;;4960697;28;20065;-72
2023/08/24 08:42:37;;;;;;;5.82;3.60;;;20.90;39.00;;;;;;4969863;28;20042;-73
2023/08/24 08:45:07;;;;;;;8.15;3.88;;;21.10;1.00;;;;;;4978116;28;20046;-72
2023/08/24 08:47:33;;;;;;;8.02;4.13;;;21.30;1.00;;;;;;4978709;28;20392;-73
2023/08/24 08:50:03;;;;;;;9.07;3.40;;;21.50;1.00;;;;;;4961181;28;20046;-73
2023/08/24 08:52:29;;;;;;;7.72;4.07;;;21.70;1.00;;;;;;4997000;28;20046;-73
2023/08/24 08:54:54;;;;;;;6.13;3.78;;;21.90;1.00;;;;;;4984260;28;21122;-73
2023/08/24 08:57:22;;;;;;;6.50;3.63;;;22.10;99.90;;;;;;4996624;28;20131;-73
2023/08/24 08:59:50;;;;;;;7.53;3.70;;;22.50;99.90;;;;;;4955999;28;20049;-73
2023/08/24 09:02:19;;;;;;;6.57;3.25;;;22.70;99.90;;;;;;4972878;28;20043;-73
2023/08/24 09:04:45;;;;;;;8.18;3.85;;;23.00;99.90;;;;;;4972661;28;20282;-73
2023/08/24 09:07:13;;;;;;;6.82;3.70;;;23.40;99.90;;;;;;4977568;28;20125;-73
2023/08/24 09:09:39;;;;;;;7.00;3.67;;;23.80;99.90;;;;;;4964278;28;20538;-73
2023/08/24 09:12:06;;;;;;;5.30;3.42;;;24.20;99.90;;;;;;4959530;28;20074;-74
2023/08/24 09:14:32;;;;;;;9.32;3.85;;;24.50;99.90;;;;;;4963693;28;20038;-73
2023/08/24 09:16:58;;;;;;;5.43;3.42;;;25.00;80.30;;;;;;4983472;28;20031;-73
2023/08/24 09:19:31;;;;;;;9.43;3.63;;;25.30;25.60;;;;;;4993029;28;20046;-73
2023/08/24 09:21:58;;;;;;;9.95;3.53;;;25.60;2.40;;;;;;4977832;28;20046;-71
2023/08/24 09:24:35;;;;;;;8.35;3.78;;;26.00;1.00;;;;;;4985609;28;20523;-74
2023/08/24 09:27:14;;;;;;;6.30;3.40;;;26.10;1.00;;;;;;4989604;28;20046;-74
2023/08/24 09:29:39;;;;;;;6.88;3.40;;;26.20;1.00;;;;;;4973251;28;20156;-73
2023/08/24 09:32:08;;;;;;;6.20;3.40;;;26.20;1.00;;;;;;4977687;28;20107;-73
2023/08/24 09:34:36;;;;;;;4.95;3.47;;;26.20;1.00;;;;;;4973433;28;20054;-73
2023/08/24 09:37:05;;;;;;;9.18;4.15;;;26.20;1.00;;;;;;4989364;28;20065;-73
2023/08/24 09:39:30;;;;;;;7.88;3.95;;;26.10;1.00;;;;;;4983363;28;20039;-73
2023/08/24 09:42:02;;;;;;;6.28;3.50;;;26.00;1.00;;;;;;4985280;28;20046;-73
2023/08/24 09:44:28;;;;;;;5.30;3.60;;;25.80;1.00;;;;;;4986914;28;20042;-74
2023/08/24 09:46:54;;;;;;;4.38;3.03;;;25.70;1.00;;;;;;4987957;28;20037;-74
2023/08/24 09:49:21;;;;;;;6.72;3.47;;;25.50;1.00;;;;;;4981772;28;20166;-73
2023/08/24 09:51:48;;;;;;;6.22;3.55;;;25.40;1.00;;;;;;4988056;28;20058;-74
2023/08/24 09:54:16;;;;;;;5.78;3.92;;;25.20;1.00;;;;;;4982473;28;20420;-73
2023/08/24 09:56:43;;;;;;;6.15;4.03;;;25.20;1.00;;;;;;4979164;28;20054;-72
2023/08/24 09:59:21;;;;;;;7.80;3.95;;;25.10;1.00;;;;;;4981976;28;20034;-74
2023/08/24 10:01:48;;;;;;;7.55;4.13;;;25.00;1.00;;;;;;4971831;28;20405;-73
2023/08/24 10:04:17;;;;;;;6.50;4.00;;;24.80;1.00;;;;;;4980279;28;20133;-73
2023/08/24 10:06:46;;;;;;;7.22;4.47;;;24.80;1.00;;;;;;4960611;28;20031;-74
2023/08/24 10:09:22;;;;;;;7.70;4.57;;;24.70;1.00;;;;;;5001504;28;20120;-74
2023/08/24 10:12:00;;;;;;;7.57;4.13;;;24.60;1.00;;;;;;4988801;28;20035;-72
2023/08/24 10:15:06;;;;;;;5.95;3.72;;;24.60;1.00;;;;;;4969283;28;20458;-73
2023/08/24 10:17:34;;;;;;;9.63;4.07;;;24.50;1.00;;;;;;4977398;28;20038;-73
2023/08/24 10:20:09;;;;;;;4.88;3.92;;;24.40;1.00;;;;;;4988270;28;20065;-73
2023/08/24 10:22:36;;;;;;;5.55;3.97;;;24.30;1.00;;;;;;5004586;28;20046;-73
2023/08/24 10:25:02;;;;;;;6.78;4.00;;;24.30;1.00;;;;;;4988730;28;20062;-74
2023/08/24 10:27:29;;;;;;;7.10;3.90;;;24.20;1.00;;;;;;4987249;28;20054;-73
2023/08/24 10:29:55;;;;;;;6.95;3.80;;;24.20;1.00;;;;;;4988871;28;20050;-73
2023/08/24 10:32:23;;;;;;;5.80;3.97;;;24.20;1.00;;;;;;4987859;28;20050;-73
2023/08/24 10:34:49;;;;;;;8.40;4.15;;;24.20;1.00;;;;;;4988635;28;20038;-74
2023/08/24 10:37:16;;;;;;;6.88;3.92;;;24.20;1.00;;;;;;4987914;28;20084;-73
2023/08/24 10:39:46;;;;;;;6.80;3.65;;;24.20;1.00;;;;;;5000931;28;20493;-73
2023/08/24 10:42:13;;;;;;;8.05;3.97;;;24.20;1.00;;;;;;4974265;28;20058;-73
2023/08/24 10:44:43;;;;;;;5.93;4.38;;;24.20;1.00;;;;;;4976519;28;20056;-73
2023/08/24 10:47:20;;;;;;;5.38;4.03;;;24.10;1.00;;;;;;4982656;28;20042;-73
2023/08/24 10:49:55;;;;;;;8.23;4.65;;;24.20;1.00;;;;;;4985014;28;20034;-72
2023/08/24 10:52:25;;;;;;;6.10;4.10;;;24.20;1.00;;;;;;4969620;28;20046;-72
2023/08/24 10:54:52;;;;;;;6.45;4.20;;;24.20;1.00;;;;;;5010391;28;20045;-73
2023/08/24 10:57:29;;;;;;;7.53;4.57;;;24.20;1.00;;;;;;4985216;28;20037;-72
2023/08/24 11:00:11;;;;;;;8.82;4.90;;;24.30;1.00;;;;;;5002978;28;20046;-73
2023/08/24 11:02:50;;;;;;;6.10;4.22;;;24.30;1.00;;;;;;4971583;28;20084;-74
2023/08/24 11:05:35;;;;;;;5.60;4.30;;;24.40;1.00;;;;;;4971319;28;20073;-73
2023/08/24 11:08:02;;;;;;;9.90;5.50;;;24.50;1.00;;;;;;4993993;28;20562;-72
2023/08/24 11:10:41;;;;;;;6.40;4.68;;;24.70;1.00;;;;;;4965204;28;20565;-74
2023/08/24 11:13:08;;;;;;;7.75;5.22;;;25.00;1.00;;;;;;4975142;28;20050;-73
2023/08/24 11:15:41;;;;;;;8.25;5.57;;;25.20;1.00;;;;;;5002869;28;20045;-73
2023/08/24 11:18:14;;;;;;;7.40;5.50;;;25.30;1.00;;;;;;4990965;28;20121;-73
2023/08/24 11:20:47;;;;;;;8.55;4.35;;;25.50;1.00;;;;;;4999991;28;20046;-73
2023/08/24 11:23:15;;;;;;;9.38;4.97;;;25.70;1.00;;;;;;4974940;28;20046;-73
2023/08/24 11:25:41;;;;;;;11.40;5.70;;;25.80;1.00;;;;;;4983233;28;20080;-73
2023/08/24 11:28:06;;;;;;;9.10;5.60;;;25.80;1.00;;;;;;4992198;28;20467;-73
2023/08/24 11:30:33;;;;;;;5.82;4.65;;;25.70;1.00;;;;;;4981876;28;20130;-74
2023/08/24 11:32:59;;;;;;;8.48;5.35;;;25.70;1.00;;;;;;4981913;28;20046;-73
2023/08/24 11:35:25;;;;;;;12.23;4.63;;;25.60;1.00;;;;;;5000070;28;20042;-74
2023/08/24 11:37:55;;;;;;;7.15;4.68;;;25.50;1.00;;;;;;4982799;28;20041;-73
2023/08/24 11:40:26;;;;;;;9.70;5.30;;;25.50;1.00;;;;;;4986671;28;20046;-73
2023/08/24 11:42:58;;;;;;;7.63;5.03;;;25.50;1.00;;;;;;4999542;28;20042;-73
2023/08/24 11:45:29;;;;;;;7.95;5.00;;;25.50;1.00;;;;;;4980003;28;20585;-73
2023/08/24 11:47:56;;;;;;;8.82;4.53;;;25.30;1.00;;;;;;4999484;28;20088;-73
2023/08/24 11:50:23;;;;;;;7.68;4.80;;;25.30;1.00;;;;;;4992123;28;20493;-74
2023/08/24 11:52:49;;;;;;;6.00;4.53;;;25.30;1.00;;;;;;5000300;28;20129;-73
2023/08/24 11:55:14;;;;;;;6.40;4.85;;;25.50;1.00;;;;;;4980328;28;20141;-73
2023/08/24 11:57:41;;;;;;;8.98;4.60;;;25.80;1.00;;;;;;4998101;28;20061;-74
2023/08/24 12:00:09;;;;;;;8.70;4.55;;;26.20;1.00;;;;;;4980922;28;20038;-73
2023/08/24 12:02:35;;;;;;;13.23;5.70;;;26.50;1.00;;;;;;4999019;28;20046;-73
2023/08/24 12:05:02;;;;;;;5.18;4.40;;;26.90;1.00;;;;;;4986899;28;20038;-73
2023/08/24 12:07:27;;;;;;;5.65;4.15;;;27.10;1.00;;;;;;4997515;28;20038;-73
2023/08/24 12:09:54;;;;;;;6.18;4.10;;;27.30;1.00;;;;;;4990135;28;20045;-73
2023/08/24 12:12:21;;;;;;;6.53;4.45;;;27.50;1.00;;;;;;4987110;28;20049;-74
2023/08/24 12:14:47;;;;;;;5.53;4.55;;;27.60;1.00;;;;;;4984210;28;20386;-73
2023/08/24 12:17:14;;;;;;;11.07;4.20;;;27.60;1.00;;;;;;4979103;28;20485;-73
2023/08/24 12:19:56;;;;;;;4.70;3.85;;;27.60;1.00;;;;;;4987086;28;20086;-73
2023/08/24 12:22:22;;;;;;;7.40;4.40;;;27.60;1.00;;;;;;4999825;28;20146;-73
2023/08/24 12:24:48;;;;;;;6.82;4.25;;;27.60;1.00;;;;;;4985395;28;20583;-73
2023/08/24 12:27:21;;;;;;;7.55;5.22;;;27.50;1.00;;;;;;4988317;28;20052;-73
2023/08/24 12:29:47;;;;;;;5.90;3.90;;;27.30;1.00;;;;;;4985014;28;20459;-73
2023/08/24 12:32:15;;;;;;;7.35;4.57;;;27.10;1.00;;;;;;4981953;28;20050;-73
2023/08/24 12:34:41;;;;;;;6.47;4.05;;;26.80;1.00;;;;;;4993081;28;20141;-73
2023/08/24 12:37:06;;;;;;;7.93;4.30;;;26.60;1.00;;;;;;4978389;28;20038;-73
2023/08/24 12:39:36;;;;;;;5.22;4.05;;;26.50;1.00;;;;;;4986556;28;20062;-73
2023/08/24 12:42:06;;;;;;;5.03;3.83;;;26.40;1.00;;;;;;4975901;28;20139;-73
2023/08/24 12:44:32;;;;;;;4.72;3.60;;;26.50;1.00;;;;;;4975789;28;20057;-73
2023/08/24 12:46:59;;;;;;;6.32;4.28;;;26.70;1.00;;;;;;4989759;28;20089;-73
2023/08/24 12:49:24;;;;;;;8.02;4.10;;;26.90;1.00;;;;;;4985312;28;20560;-73
2023/08/24 12:51:50;;;;;;;5.93;4.03;;;27.10;1.00;;;;;;4985619;28;20042;-73
2023/08/24 12:54:15;;;;;;;9.45;3.88;;;27.30;1.00;;;;;;4969224;28;20078;-72